Aérodrome :
LOGIN :

S'inscrire | Disclaimer

   EN    FR    IT 

 










Légende :    VFR   VFR Marginal   IFR   IFR Intensif   IFR Très Intensif
Visi : 
Plafond : 
>= 8 km
>= 3000ft
5 à 8 km
1000 à 3000 ft
1500m à 5 km
500 à 1000 ft
800 à 1500m
200 à 500 ft
< 800m
< 200 ft
Symboles :   Orages  Brouillard  Fortes neiges  Fortes précipitations  Vent > 20 kt
SIGMETs :   Divers  Orages  Givrage  Turbulence  Onde Orograph.  Cendres Volcan.







- Altitude de l'aérodrome : 62 ft
- Code IATA : TAN


GMTT - Tanger Ibn Batouta

DERNIER METAR :
  • 280000Z 11005KT 080V150 8000 SCT016 BKN080 18/13 Q1009 NOSIG

METARs EXPIRÉS :
  • 272330Z 10004KT 050V120 8000 SCT016 BKN080 18/13 Q1009 NOSIG
  • 272300Z VRB01KT 8000 SCT016 BKN080 18/13 Q1009 NOSIG
  • 272230Z VRB02KT 8000 SCT016 SCT080 18/13 Q1009 NOSIG
  • 272200Z 09003KT 040V120 8000 SCT016 BKN080 18/13 Q1010 NOSIG
  • 272130Z 10004KT 8000 SCT016 BKN080 18/13 Q1010 NOSIG

TAF TAF GMTT
Valide du 28 à 00h jusqu'au 29 à 06h UTC


272300Z 2800/2906 06006KT 8000 SCT016 BKN080
TEMPO 2803/2815 09020G30KT 2000 TSRA FEW010 BKN013 FEW020CB
PROB40
TEMPO 2815/2821 09015G25KT 4000 SHRA SCT010 BKN015 FEW020TCU
Pas de NOTAMs connus pour ce terrain.
3 SIGMETs publiés pour la FIR Casablanca (GMMM) :
 
Orages noyés dans la masse
GMMM SIGMET S1 VALID 272305/280100 GMMC
GMMM CASABLANCA FIR EMBD TS OBS WI N3520 W00540 - N3200 W00630 - N3 120 W00640 - N3000 W00827 - N2900 W00807 - N3220 W00540 TOP FL300 MO V NE INTSF=
Orages noyés dans la masse
GMMM SIGMET O5 VALID 272200/280200 GMMC
GMMM CASABLANCA FIR EMBD TS OBS NW OF LINE N3500 W00700 - N3200 W011 40 TOP FL420 MOV NE NC=
Orages noyés dans la masse
GMMM SIGMET L1 VALID 272330/280200 GMMC
GMMM CASABLANCA FIR EMBD TS OBS WI N3546 W00530 - N3324 W00750 - N3 203 W00713 - N3403 W00333 - N3546 W00530 - N3220 W00540 TOP FL240 MO V NE INTSF=



MET'MAP, la Météo Aéronautique d'un coup d'oeil ! - Copyright ORBIFLY Décembre 2007 - Disclaimer

ORBIFLY MET'MAP TEAM :

Programmation & Développement : Alexandra Zaïnal
Conception & Développement : Baudouin d'Aumeries
Co-Programmation & Développement : Marc-Olivier Méhu
Soutien technique & logistique : Manuel Goepfert

Contact : metmap@orbifly.com




SOURCES & CREDITS :

   NOAA